sensor_id;sensor_type;location;lat;lon;timestamp;pressure;altitude;pressure_sealevel;temperature;humidity
22580;BME280;11456;47.030;15.396;2023-02-04T00:00:13;97547.16;;;7.63;76.58
22580;BME280;11456;47.030;15.396;2023-02-04T00:02:40;97545.47;;;7.62;76.25
22580;BME280;11456;47.030;15.396;2023-02-04T00:05:07;97567.72;;;7.53;76.54
22580;BME280;11456;47.030;15.396;2023-02-04T00:07:34;97555.59;;;7.49;77.43
22580;BME280;11456;47.030;15.396;2023-02-04T00:10:01;97552.19;;;7.47;77.60
22580;BME280;11456;47.030;15.396;2023-02-04T00:12:27;97530.16;;;7.43;77.93
22580;BME280;11456;47.030;15.396;2023-02-04T00:14:54;97541.72;;;7.44;77.65
22580;BME280;11456;47.030;15.396;2023-02-04T00:17:21;97536.97;;;7.57;76.42
22580;BME280;11456;47.030;15.396;2023-02-04T00:19:47;97556.66;;;7.37;77.12
22580;BME280;11456;47.030;15.396;2023-02-04T00:22:14;97559.13;;;7.19;77.47
22580;BME280;11456;47.030;15.396;2023-02-04T00:24:40;97559.75;;;7.32;77.08
22580;BME280;11456;47.030;15.396;2023-02-04T00:27:08;97554.16;;;7.45;76.28
22580;BME280;11456;47.030;15.396;2023-02-04T00:29:34;97561.03;;;7.07;78.49
22580;BME280;11456;47.030;15.396;2023-02-04T00:32:01;97560.69;;;6.91;79.05
22580;BME280;11456;47.030;15.396;2023-02-04T00:34:27;97562.69;;;6.57;81.29
22580;BME280;11456;47.030;15.396;2023-02-04T00:36:54;97570.25;;;6.31;82.34
22580;BME280;11456;47.030;15.396;2023-02-04T00:39:20;97576.31;;;6.33;81.87
22580;BME280;11456;47.030;15.396;2023-02-04T00:41:47;97571.94;;;6.32;82.80
22580;BME280;11456;47.030;15.396;2023-02-04T00:44:13;97589.06;;;5.87;85.24
22580;BME280;11456;47.030;15.396;2023-02-04T00:46:40;97593.69;;;5.85;85.23
22580;BME280;11456;47.030;15.396;2023-02-04T00:49:08;97579.13;;;5.78;86.35
22580;BME280;11456;47.030;15.396;2023-02-04T00:51:36;97568.91;;;5.72;85.95
22580;BME280;11456;47.030;15.396;2023-02-04T00:54:04;97578.19;;;5.56;86.24
22580;BME280;11456;47.030;15.396;2023-02-04T00:56:30;97579.88;;;5.69;85.67
22580;BME280;11456;47.030;15.396;2023-02-04T00:58:57;97573.31;;;5.61;85.66
22580;BME280;11456;47.030;15.396;2023-02-04T01:01:23;97579.41;;;5.30;89.47
22580;BME280;11456;47.030;15.396;2023-02-04T01:03:50;97585.47;;;5.21;89.65
22580;BME280;11456;47.030;15.396;2023-02-04T01:06:16;97593.00;;;5.27;89.11
22580;BME280;11456;47.030;15.396;2023-02-04T01:08:43;97589.38;;;5.17;88.72
22580;BME280;11456;47.030;15.396;2023-02-04T01:11:09;97589.97;;;5.20;88.11
22580;BME280;11456;47.030;15.396;2023-02-04T01:13:36;97581.59;;;5.14;88.21
22580;BME280;11456;47.030;15.396;2023-02-04T01:16:02;97566.66;;;5.00;89.36
22580;BME280;11456;47.030;15.396;2023-02-04T01:18:29;97583.06;;;5.18;86.78
22580;BME280;11456;47.030;15.396;2023-02-04T01:20:55;97576.59;;;5.54;85.69
22580;BME280;11456;47.030;15.396;2023-02-04T01:23:22;97576.22;;;5.70;81.48
22580;BME280;11456;47.030;15.396;2023-02-04T01:25:48;97561.09;;;6.02;78.81
22580;BME280;11456;47.030;15.396;2023-02-04T01:28:15;97572.97;;;6.09;77.69
22580;BME280;11456;47.030;15.396;2023-02-04T01:30:41;97578.31;;;6.09;76.27
22580;BME280;11456;47.030;15.396;2023-02-04T01:33:08;97571.28;;;6.08;75.57
22580;BME280;11456;47.030;15.396;2023-02-04T01:35:34;97568.81;;;6.16;73.84
22580;BME280;11456;47.030;15.396;2023-02-04T01:38:01;97558.91;;;6.07;74.10
22580;BME280;11456;47.030;15.396;2023-02-04T01:40:27;97572.06;;;5.99;73.67
22580;BME280;11456;47.030;15.396;2023-02-04T01:42:55;97566.28;;;6.15;72.86
22580;BME280;11456;47.030;15.396;2023-02-04T01:45:22;97567.13;;;6.15;73.63
22580;BME280;11456;47.030;15.396;2023-02-04T01:47:49;97577.06;;;6.24;73.83
22580;BME280;11456;47.030;15.396;2023-02-04T01:50:16;97576.38;;;6.11;73.79
22580;BME280;11456;47.030;15.396;2023-02-04T01:52:43;97581.31;;;5.95;75.18
22580;BME280;11456;47.030;15.396;2023-02-04T01:55:14;97556.50;;;6.57;72.17
22580;BME280;11456;47.030;15.396;2023-02-04T01:57:42;97553.41;;;6.20;72.79
22580;BME280;11456;47.030;15.396;2023-02-04T02:00:09;97549.25;;;5.95;74.64
22580;BME280;11456;47.030;15.396;2023-02-04T02:02:47;97544.31;;;6.11;73.86
22580;BME280;11456;47.030;15.396;2023-02-04T02:05:21;97560.34;;;6.11;73.14
22580;BME280;11456;47.030;15.396;2023-02-04T02:07:50;97564.50;;;6.36;72.53
22580;BME280;11456;47.030;15.396;2023-02-04T02:10:17;97548.91;;;6.20;74.60
22580;BME280;11456;47.030;15.396;2023-02-04T02:12:44;97553.06;;;6.02;73.11
22580;BME280;11456;47.030;15.396;2023-02-04T02:15:11;97551.03;;;5.83;74.25
22580;BME280;11456;47.030;15.396;2023-02-04T02:17:38;97539.06;;;5.67;75.07
22580;BME280;11456;47.030;15.396;2023-02-04T02:20:05;97546.53;;;5.84;75.02
22580;BME280;11456;47.030;15.396;2023-02-04T02:22:34;97541.41;;;6.03;73.25
22580;BME280;11456;47.030;15.396;2023-02-04T02:25:06;97528.03;;;6.14;72.90
22580;BME280;11456;47.030;15.396;2023-02-04T02:27:33;97538.19;;;6.20;72.12
22580;BME280;11456;47.030;15.396;2023-02-04T02:29:59;97521.88;;;6.23;71.96
22580;BME280;11456;47.030;15.396;2023-02-04T02:32:25;97526.19;;;6.35;70.96
22580;BME280;11456;47.030;15.396;2023-02-04T02:34:52;97541.16;;;6.38;71.06
22580;BME280;11456;47.030;15.396;2023-02-04T02:37:18;97536.78;;;6.58;70.11
22580;BME280;11456;47.030;15.396;2023-02-04T02:39:45;97529.50;;;6.07;71.45
22580;BME280;11456;47.030;15.396;2023-02-04T02:42:12;97538.78;;;6.24;71.51
22580;BME280;11456;47.030;15.396;2023-02-04T02:44:40;97530.19;;;6.62;68.84
22580;BME280;11456;47.030;15.396;2023-02-04T02:47:10;97528.28;;;6.94;69.23
22580;BME280;11456;47.030;15.396;2023-02-04T02:49:38;97527.69;;;6.28;69.08
22580;BME280;11456;47.030;15.396;2023-02-04T02:52:08;97516.75;;;5.56;74.62
22580;BME280;11456;47.030;15.396;2023-02-04T02:54:35;97518.38;;;7.15;68.16
22580;BME280;11456;47.030;15.396;2023-02-04T02:57:04;97503.00;;;6.04;71.95
22580;BME280;11456;47.030;15.396;2023-02-04T02:59:36;97502.28;;;6.02;70.99
22580;BME280;11456;47.030;15.396;2023-02-04T03:02:02;97516.84;;;6.09;71.95
22580;BME280;11456;47.030;15.396;2023-02-04T03:04:33;97515.25;;;6.38;69.36
22580;BME280;11456;47.030;15.396;2023-02-04T03:07:02;97510.28;;;6.55;68.07
22580;BME280;11456;47.030;15.396;2023-02-04T03:09:29;97513.53;;;6.17;69.27
22580;BME280;11456;47.030;15.396;2023-02-04T03:11:55;97511.41;;;6.31;70.02
22580;BME280;11456;47.030;15.396;2023-02-04T03:14:22;97506.63;;;6.56;67.94
22580;BME280;11456;47.030;15.396;2023-02-04T03:16:51;97512.50;;;6.50;67.93
22580;BME280;11456;47.030;15.396;2023-02-04T03:19:19;97511.34;;;6.42;68.75
22580;BME280;11456;47.030;15.396;2023-02-04T03:21:45;97525.22;;;6.36;68.61
22580;BME280;11456;47.030;15.396;2023-02-04T03:24:12;97513.97;;;6.22;69.90
22580;BME280;11456;47.030;15.396;2023-02-04T03:26:38;97533.78;;;6.30;69.28
22580;BME280;11456;47.030;15.396;2023-02-04T03:29:07;97528.19;;;6.33;69.72
22580;BME280;11456;47.030;15.396;2023-02-04T03:31:34;97527.13;;;6.46;68.60
22580;BME280;11456;47.030;15.396;2023-02-04T03:34:01;97528.41;;;6.30;69.16
22580;BME280;11456;47.030;15.396;2023-02-04T03:36:27;97527.72;;;6.49;69.08
22580;BME280;11456;47.030;15.396;2023-02-04T03:38:54;97513.72;;;6.66;67.83
22580;BME280;11456;47.030;15.396;2023-02-04T03:41:21;97531.81;;;6.32;68.72
22580;BME280;11456;47.030;15.396;2023-02-04T03:43:47;97522.88;;;6.43;67.33
22580;BME280;11456;47.030;15.396;2023-02-04T03:46:14;97508.72;;;6.31;68.26
22580;BME280;11456;47.030;15.396;2023-02-04T03:48:40;97504.56;;;6.38;68.16
22580;BME280;11456;47.030;15.396;2023-02-04T03:51:07;97515.91;;;6.52;66.96
22580;BME280;11456;47.030;15.396;2023-02-04T03:53:33;97505.25;;;6.61;65.95
22580;BME280;11456;47.030;15.396;2023-02-04T03:56:00;97513.00;;;6.85;65.36
22580;BME280;11456;47.030;15.396;2023-02-04T03:58:26;97507.50;;;6.87;64.79
22580;BME280;11456;47.030;15.396;2023-02-04T04:00:53;97529.25;;;6.72;65.77
22580;BME280;11456;47.030;15.396;2023-02-04T04:03:19;97535.97;;;7.08;63.69
22580;BME280;11456;47.030;15.396;2023-02-04T04:05:45;97548.13;;;6.92;63.82
22580;BME280;11456;47.030;15.396;2023-02-04T04:08:12;97557.59;;;6.75;64.18
22580;BME280;11456;47.030;15.396;2023-02-04T04:10:38;97539.84;;;6.95;64.09
22580;BME280;11456;47.030;15.396;2023-02-04T04:13:07;97546.03;;;6.95;64.21
22580;BME280;11456;47.030;15.396;2023-02-04T04:15:33;97549.16;;;7.00;64.87
22580;BME280;11456;47.030;15.396;2023-02-04T04:18:00;97559.63;;;7.03;64.09
22580;BME280;11456;47.030;15.396;2023-02-04T04:20:27;97572.81;;;6.95;64.75
22580;BME280;11456;47.030;15.396;2023-02-04T04:22:54;97566.94;;;7.01;64.65
22580;BME280;11456;47.030;15.396;2023-02-04T04:25:21;97567.56;;;7.14;63.56
22580;BME280;11456;47.030;15.396;2023-02-04T04:27:47;97587.69;;;6.88;63.99
22580;BME280;11456;47.030;15.396;2023-02-04T04:30:14;97575.28;;;6.87;64.60
22580;BME280;11456;47.030;15.396;2023-02-04T04:32:40;97600.84;;;6.91;64.56
22580;BME280;11456;47.030;15.396;2023-02-04T04:35:07;97613.41;;;7.00;64.73
22580;BME280;11456;47.030;15.396;2023-02-04T04:37:33;97638.38;;;7.01;64.31
22580;BME280;11456;47.030;15.396;2023-02-04T04:40:00;97627.78;;;6.78;66.53
22580;BME280;11456;47.030;15.396;2023-02-04T04:42:28;97630.28;;;6.91;67.41
22580;BME280;11456;47.030;15.396;2023-02-04T04:44:54;97636.94;;;6.76;68.19
22580;BME280;11456;47.030;15.396;2023-02-04T04:47:20;97641.31;;;6.77;67.68
22580;BME280;11456;47.030;15.396;2023-02-04T04:49:47;97651.91;;;6.67;68.91
22580;BME280;11456;47.030;15.396;2023-02-04T04:52:13;97649.34;;;6.77;69.09
22580;BME280;11456;47.030;15.396;2023-02-04T04:54:40;97655.22;;;6.60;69.98
22580;BME280;11456;47.030;15.396;2023-02-04T04:57:06;97677.50;;;6.17;71.93
22580;BME280;11456;47.030;15.396;2023-02-04T04:59:33;97678.38;;;6.50;70.90
22580;BME280;11456;47.030;15.396;2023-02-04T05:01:59;97673.19;;;6.69;70.02
22580;BME280;11456;47.030;15.396;2023-02-04T05:04:26;97698.69;;;6.52;70.68
22580;BME280;11456;47.030;15.396;2023-02-04T05:06:52;97693.00;;;6.46;70.62
22580;BME280;11456;47.030;15.396;2023-02-04T05:09:19;97714.75;;;6.52;70.95
22580;BME280;11456;47.030;15.396;2023-02-04T05:11:45;97709.22;;;6.65;70.80
22580;BME280;11456;47.030;15.396;2023-02-04T05:14:14;97704.28;;;6.81;69.93
22580;BME280;11456;47.030;15.396;2023-02-04T05:16:41;97721.41;;;6.58;70.90
22580;BME280;11456;47.030;15.396;2023-02-04T05:19:08;97724.50;;;6.74;70.35
22580;BME280;11456;47.030;15.396;2023-02-04T05:21:34;97741.22;;;6.98;69.09
22580;BME280;11456;47.030;15.396;2023-02-04T05:24:00;97750.78;;;6.80;70.05
22580;BME280;11456;47.030;15.396;2023-02-04T05:26:27;97749.56;;;6.73;70.59
22580;BME280;11456;47.030;15.396;2023-02-04T05:28:56;97752.97;;;6.75;70.27
22580;BME280;11456;47.030;15.396;2023-02-04T05:31:25;97761.97;;;6.74;69.62
22580;BME280;11456;47.030;15.396;2023-02-04T05:33:51;97760.53;;;6.70;70.16
22580;BME280;11456;47.030;15.396;2023-02-04T05:36:19;97757.38;;;6.76;68.75
22580;BME280;11456;47.030;15.396;2023-02-04T05:38:46;97756.50;;;6.75;69.12
22580;BME280;11456;47.030;15.396;2023-02-04T05:41:12;97757.09;;;6.90;68.46
22580;BME280;11456;47.030;15.396;2023-02-04T05:43:39;97764.94;;;6.60;69.75
22580;BME280;11456;47.030;15.396;2023-02-04T05:46:05;97761.06;;;6.64;70.07
22580;BME280;11456;47.030;15.396;2023-02-04T05:48:32;97768.00;;;6.55;69.38
22580;BME280;11456;47.030;15.396;2023-02-04T05:50:58;97753.94;;;6.74;68.50
22580;BME280;11456;47.030;15.396;2023-02-04T05:53:25;97758.44;;;6.30;68.88
22580;BME280;11456;47.030;15.396;2023-02-04T05:55:51;97755.38;;;6.46;69.53
22580;BME280;11456;47.030;15.396;2023-02-04T05:58:18;97745.28;;;6.38;68.69
22580;BME280;11456;47.030;15.396;2023-02-04T06:00:44;97748.75;;;7.25;65.96
22580;BME280;11456;47.030;15.396;2023-02-04T06:03:11;97770.75;;;6.76;66.12
22580;BME280;11456;47.030;15.396;2023-02-04T06:05:39;97754.25;;;7.44;62.76
22580;BME280;11456;47.030;15.396;2023-02-04T06:08:06;97761.34;;;6.38;65.22
22580;BME280;11456;47.030;15.396;2023-02-04T06:10:32;97769.75;;;6.12;66.54
22580;BME280;11456;47.030;15.396;2023-02-04T06:12:59;97763.28;;;6.03;67.17
22580;BME280;11456;47.030;15.396;2023-02-04T06:15:25;97785.41;;;6.05;67.23
22580;BME280;11456;47.030;15.396;2023-02-04T06:17:52;97765.31;;;6.98;63.37
22580;BME280;11456;47.030;15.396;2023-02-04T06:20:18;97786.09;;;6.63;63.91
22580;BME280;11456;47.030;15.396;2023-02-04T06:22:45;97792.53;;;6.60;62.71
22580;BME280;11456;47.030;15.396;2023-02-04T06:25:12;97794.38;;;6.49;64.44
22580;BME280;11456;47.030;15.396;2023-02-04T06:27:39;97796.72;;;6.09;65.69
22580;BME280;11456;47.030;15.396;2023-02-04T06:30:06;97805.50;;;6.33;66.17
22580;BME280;11456;47.030;15.396;2023-02-04T06:32:32;97823.34;;;6.32;65.15
22580;BME280;11456;47.030;15.396;2023-02-04T06:34:59;97833.19;;;6.65;63.93
22580;BME280;11456;47.030;15.396;2023-02-04T06:37:25;97844.75;;;6.32;65.48
22580;BME280;11456;47.030;15.396;2023-02-04T06:39:52;97863.84;;;6.39;66.22
22580;BME280;11456;47.030;15.396;2023-02-04T06:42:20;97857.00;;;6.35;66.04
22580;BME280;11456;47.030;15.396;2023-02-04T06:44:46;97864.28;;;6.66;65.30
22580;BME280;11456;47.030;15.396;2023-02-04T06:47:12;97875.03;;;6.55;64.69
22580;BME280;11456;47.030;15.396;2023-02-04T06:49:39;97884.00;;;6.54;65.18
22580;BME280;11456;47.030;15.396;2023-02-04T06:52:06;97898.00;;;6.47;66.34
22580;BME280;11456;47.030;15.396;2023-02-04T06:54:32;97911.28;;;6.70;65.64
22580;BME280;11456;47.030;15.396;2023-02-04T06:56:59;97916.38;;;6.40;66.74
22580;BME280;11456;47.030;15.396;2023-02-04T06:59:35;97917.47;;;6.49;67.18
22580;BME280;11456;47.030;15.396;2023-02-04T07:02:03;97927.44;;;6.58;67.25
22580;BME280;11456;47.030;15.396;2023-02-04T07:04:29;97941.06;;;6.43;67.86
22580;BME280;11456;47.030;15.396;2023-02-04T07:06:56;97957.59;;;6.37;69.07
22580;BME280;11456;47.030;15.396;2023-02-04T07:09:22;97961.00;;;6.39;70.56
22580;BME280;11456;47.030;15.396;2023-02-04T07:11:49;97974.31;;;6.28;72.82
22580;BME280;11456;47.030;15.396;2023-02-04T07:14:15;97992.34;;;6.26;74.02
22580;BME280;11456;47.030;15.396;2023-02-04T07:16:42;98010.41;;;6.12;76.35
22580;BME280;11456;47.030;15.396;2023-02-04T07:19:08;98017.28;;;6.03;78.71
22580;BME280;11456;47.030;15.396;2023-02-04T07:21:35;98035.13;;;5.79;81.08
22580;BME280;11456;47.030;15.396;2023-02-04T07:24:01;98039.22;;;5.72;82.23
22580;BME280;11456;47.030;15.396;2023-02-04T07:26:28;98050.38;;;5.53;84.69
22580;BME280;11456;47.030;15.396;2023-02-04T07:28:54;98051.94;;;5.32;86.46
22580;BME280;11456;47.030;15.396;2023-02-04T07:31:21;98070.44;;;5.22;87.20
22580;BME280;11456;47.030;15.396;2023-02-04T07:33:47;98086.56;;;4.82;89.30
22580;BME280;11456;47.030;15.396;2023-02-04T07:36:14;98079.31;;;5.10;86.75
22580;BME280;11456;47.030;15.396;2023-02-04T07:38:40;98079.50;;;4.56;88.68
22580;BME280;11456;47.030;15.396;2023-02-04T07:41:07;98088.88;;;4.49;89.51
22580;BME280;11456;47.030;15.396;2023-02-04T07:43:34;98077.94;;;4.66;89.03
22580;BME280;11456;47.030;15.396;2023-02-04T07:46:00;98082.28;;;4.55;90.91
22580;BME280;11456;47.030;15.396;2023-02-04T07:48:27;98094.88;;;4.40;91.50
22580;BME280;11456;47.030;15.396;2023-02-04T07:50:53;98097.19;;;4.32;88.80
22580;BME280;11456;47.030;15.396;2023-02-04T07:53:19;98083.56;;;5.25;91.02
22580;BME280;11456;47.030;15.396;2023-02-04T07:55:46;98077.13;;;5.40;85.91
22580;BME280;11456;47.030;15.396;2023-02-04T07:58:12;98080.16;;;5.23;83.35
22580;BME280;11456;47.030;15.396;2023-02-04T08:00:39;98098.53;;;4.90;84.49
22580;BME280;11456;47.030;15.396;2023-02-04T08:03:05;98106.50;;;5.89;80.81
22580;BME280;11456;47.030;15.396;2023-02-04T08:05:32;98106.47;;;6.02;80.51
22580;BME280;11456;47.030;15.396;2023-02-04T08:07:58;98103.91;;;5.51;80.89
22580;BME280;11456;47.030;15.396;2023-02-04T08:10:27;98121.28;;;5.82;80.95
22580;BME280;11456;47.030;15.396;2023-02-04T08:12:53;98124.16;;;5.43;81.77
22580;BME280;11456;47.030;15.396;2023-02-04T08:15:20;98135.47;;;5.46;80.35
22580;BME280;11456;47.030;15.396;2023-02-04T08:17:46;98144.25;;;6.21;79.27
22580;BME280;11456;47.030;15.396;2023-02-04T08:20:13;98147.47;;;6.26;80.98
22580;BME280;11456;47.030;15.396;2023-02-04T08:22:39;98166.91;;;6.76;81.11
22580;BME280;11456;47.030;15.396;2023-02-04T08:25:06;98168.53;;;6.90;81.47
22580;BME280;11456;47.030;15.396;2023-02-04T08:27:32;98179.16;;;6.43;82.44
22580;BME280;11456;47.030;15.396;2023-02-04T08:29:59;98169.06;;;6.71;80.87
22580;BME280;11456;47.030;15.396;2023-02-04T08:32:25;98191.88;;;7.22;79.04
22580;BME280;11456;47.030;15.396;2023-02-04T08:34:53;98183.63;;;7.59;78.03
22580;BME280;11456;47.030;15.396;2023-02-04T08:37:20;98198.97;;;8.35;76.32
22580;BME280;11456;47.030;15.396;2023-02-04T08:39:46;98189.91;;;9.32;72.08
22580;BME280;11456;47.030;15.396;2023-02-04T08:42:14;98189.38;;;9.89;68.44
22580;BME280;11456;47.030;15.396;2023-02-04T08:44:41;98197.66;;;9.25;62.87
22580;BME280;11456;47.030;15.396;2023-02-04T08:47:08;98201.13;;;9.88;64.71
22580;BME280;11456;47.030;15.396;2023-02-04T08:49:35;98209.78;;;10.81;59.63
22580;BME280;11456;47.030;15.396;2023-02-04T08:52:02;98222.38;;;9.40;57.76
22580;BME280;11456;47.030;15.396;2023-02-04T08:54:29;98232.44;;;10.19;58.26
22580;BME280;11456;47.030;15.396;2023-02-04T08:56:56;98217.69;;;9.93;53.40
22580;BME280;11456;47.030;15.396;2023-02-04T08:59:22;98213.03;;;10.25;48.94
22580;BME280;11456;47.030;15.396;2023-02-04T09:01:49;98229.13;;;10.36;49.18
22580;BME280;11456;47.030;15.396;2023-02-04T09:04:18;98241.75;;;10.45;48.10
22580;BME280;11456;47.030;15.396;2023-02-04T09:06:44;98239.47;;;10.51;45.02
22580;BME280;11456;47.030;15.396;2023-02-04T09:09:11;98256.31;;;11.21;44.23
22580;BME280;11456;47.030;15.396;2023-02-04T09:11:38;98264.69;;;9.89;45.60
22580;BME280;11456;47.030;15.396;2023-02-04T09:14:04;98281.53;;;9.29;46.86
22580;BME280;11456;47.030;15.396;2023-02-04T09:16:30;98268.53;;;9.65;46.79
22580;BME280;11456;47.030;15.396;2023-02-04T09:18:57;98278.56;;;8.79;46.22
22580;BME280;11456;47.030;15.396;2023-02-04T09:21:24;98299.06;;;7.80;47.50
22580;BME280;11456;47.030;15.396;2023-02-04T09:23:51;98303.28;;;8.51;49.64
22580;BME280;11456;47.030;15.396;2023-02-04T09:26:17;98304.31;;;8.81;48.02
22580;BME280;11456;47.030;15.396;2023-02-04T09:28:44;98314.09;;;9.67;47.03
22580;BME280;11456;47.030;15.396;2023-02-04T09:31:10;98322.84;;;7.95;47.37
22580;BME280;11456;47.030;15.396;2023-02-04T09:33:37;98329.00;;;9.50;47.14
22580;BME280;11456;47.030;15.396;2023-02-04T09:36:03;98320.09;;;9.71;46.82
22580;BME280;11456;47.030;15.396;2023-02-04T09:38:30;98332.19;;;8.47;46.67
22580;BME280;11456;47.030;15.396;2023-02-04T09:40:58;98324.75;;;9.05;45.97
22580;BME280;11456;47.030;15.396;2023-02-04T09:43:26;98348.09;;;9.04;45.84
22580;BME280;11456;47.030;15.396;2023-02-04T09:45:54;98337.06;;;8.31;47.49
22580;BME280;11456;47.030;15.396;2023-02-04T09:48:22;98339.25;;;8.70;45.26
22580;BME280;11456;47.030;15.396;2023-02-04T09:50:49;98362.84;;;9.74;44.19
22580;BME280;11456;47.030;15.396;2023-02-04T09:53:18;98364.84;;;9.72;43.70
22580;BME280;11456;47.030;15.396;2023-02-04T09:55:47;98382.53;;;9.42;43.09
22580;BME280;11456;47.030;15.396;2023-02-04T09:58:17;98370.88;;;9.85;42.00
22580;BME280;11456;47.030;15.396;2023-02-04T10:00:45;98385.69;;;9.58;43.88
22580;BME280;11456;47.030;15.396;2023-02-04T10:03:16;98381.53;;;10.49;42.90
22580;BME280;11456;47.030;15.396;2023-02-04T10:05:44;98385.13;;;9.96;41.84
22580;BME280;11456;47.030;15.396;2023-02-04T10:08:15;98388.06;;;10.56;40.79
22580;BME280;11456;47.030;15.396;2023-02-04T10:10:43;98413.28;;;10.13;43.06
22580;BME280;11456;47.030;15.396;2023-02-04T10:13:18;98418.69;;;10.85;41.72
22580;BME280;11456;47.030;15.396;2023-02-04T10:15:46;98409.25;;;9.55;43.06
22580;BME280;11456;47.030;15.396;2023-02-04T10:18:24;98415.69;;;10.27;43.98
22580;BME280;11456;47.030;15.396;2023-02-04T10:20:54;98416.47;;;9.54;43.47
22580;BME280;11456;47.030;15.396;2023-02-04T10:23:22;98415.03;;;9.50;44.61
22580;BME280;11456;47.030;15.396;2023-02-04T10:25:49;98441.41;;;10.20;41.83
22580;BME280;11456;47.030;15.396;2023-02-04T10:28:16;98445.41;;;9.19;44.18
22580;BME280;11456;47.030;15.396;2023-02-04T10:30:43;98440.06;;;8.63;47.13
22580;BME280;11456;47.030;15.396;2023-02-04T10:33:21;98426.34;;;9.22;45.62
22580;BME280;11456;47.030;15.396;2023-02-04T10:35:51;98457.09;;;9.51;45.00
22580;BME280;11456;47.030;15.396;2023-02-04T10:38:18;98457.25;;;8.61;47.01
22580;BME280;11456;47.030;15.396;2023-02-04T10:40:45;98453.13;;;9.12;45.71
22580;BME280;11456;47.030;15.396;2023-02-04T10:43:16;98458.19;;;9.92;44.54
22580;BME280;11456;47.030;15.396;2023-02-04T10:45:44;98441.22;;;9.37;44.53
22580;BME280;11456;47.030;15.396;2023-02-04T10:48:14;98431.28;;;9.92;44.12
22580;BME280;11456;47.030;15.396;2023-02-04T10:50:40;98448.06;;;9.84;44.85
22580;BME280;11456;47.030;15.396;2023-02-04T10:53:07;98436.31;;;9.85;43.38
22580;BME280;11456;47.030;15.396;2023-02-04T10:55:53;98431.84;;;9.20;43.90
22580;BME280;11456;47.030;15.396;2023-02-04T10:58:23;98448.97;;;9.62;44.09
22580;BME280;11456;47.030;15.396;2023-02-04T11:00:52;98447.13;;;9.20;43.43
22580;BME280;11456;47.030;15.396;2023-02-04T11:03:21;98431.63;;;8.90;42.89
22580;BME280;11456;47.030;15.396;2023-02-04T11:05:48;98429.13;;;9.75;42.37
22580;BME280;11456;47.030;15.396;2023-02-04T11:08:24;98438.06;;;10.28;40.27
22580;BME280;11456;47.030;15.396;2023-02-04T11:13:44;98431.84;;;9.63;39.63
22580;BME280;11456;47.030;15.396;2023-02-04T11:18:48;98443.72;;;9.61;38.10
22580;BME280;11456;47.030;15.396;2023-02-04T11:26:42;98412.38;;;10.03;35.78
22580;BME280;11456;47.030;15.396;2023-02-04T11:29:23;98420.59;;;10.94;32.29
22580;BME280;11456;47.030;15.396;2023-02-04T11:39:16;98426.44;;;11.68;30.46
22580;BME280;11456;47.030;15.396;2023-02-04T11:41:46;98434.78;;;11.65;30.55
22580;BME280;11456;47.030;15.396;2023-02-04T11:44:13;98462.81;;;12.60;31.20
22580;BME280;11456;47.030;15.396;2023-02-04T11:46:40;98459.94;;;12.71;29.48
22580;BME280;11456;47.030;15.396;2023-02-04T11:49:25;98443.00;;;12.69;28.64
22580;BME280;11456;47.030;15.396;2023-02-04T11:52:05;98472.44;;;12.72;29.14
22580;BME280;11456;47.030;15.396;2023-02-04T11:54:35;98451.41;;;12.66;29.44
22580;BME280;11456;47.030;15.396;2023-02-04T11:57:01;98453.41;;;12.64;28.60
22580;BME280;11456;47.030;15.396;2023-02-04T11:59:28;98455.81;;;13.14;29.26
22580;BME280;11456;47.030;15.396;2023-02-04T12:02:04;98469.66;;;12.45;29.66
22580;BME280;11456;47.030;15.396;2023-02-04T12:04:31;98464.25;;;13.01;29.76
22580;BME280;11456;47.030;15.396;2023-02-04T12:06:59;98470.03;;;13.71;29.00
22580;BME280;11456;47.030;15.396;2023-02-04T12:09:26;98445.78;;;14.50;26.74
22580;BME280;11456;47.030;15.396;2023-02-04T12:11:59;98469.88;;;13.54;28.33
22580;BME280;11456;47.030;15.396;2023-02-04T12:14:35;98449.59;;;13.58;28.88
22580;BME280;11456;47.030;15.396;2023-02-04T12:17:20;98467.78;;;13.48;28.92
22580;BME280;11456;47.030;15.396;2023-02-04T12:19:46;98460.53;;;13.12;28.71
22580;BME280;11456;47.030;15.396;2023-02-04T12:22:13;98471.22;;;13.04;29.79
22580;BME280;11456;47.030;15.396;2023-02-04T12:24:40;98470.81;;;13.36;27.40
22580;BME280;11456;47.030;15.396;2023-02-04T12:27:08;98483.72;;;12.58;29.00
22580;BME280;11456;47.030;15.396;2023-02-04T12:29:34;98478.47;;;12.18;28.92
22580;BME280;11456;47.030;15.396;2023-02-04T12:32:01;98478.50;;;12.09;29.41
22580;BME280;11456;47.030;15.396;2023-02-04T12:34:27;98456.31;;;12.15;30.16
22580;BME280;11456;47.030;15.396;2023-02-04T12:36:54;98492.09;;;12.36;29.55
22580;BME280;11456;47.030;15.396;2023-02-04T12:39:20;98499.28;;;11.18;31.24
22580;BME280;11456;47.030;15.396;2023-02-04T12:41:47;98488.41;;;10.99;30.24
22580;BME280;11456;47.030;15.396;2023-02-04T12:44:13;98490.88;;;10.40;31.50
22580;BME280;11456;47.030;15.396;2023-02-04T12:46:41;98483.81;;;11.70;30.39
22580;BME280;11456;47.030;15.396;2023-02-04T12:49:07;98511.47;;;9.98;31.78
22580;BME280;11456;47.030;15.396;2023-02-04T12:51:35;98505.47;;;11.09;31.98
22580;BME280;11456;47.030;15.396;2023-02-04T12:54:01;98500.69;;;11.22;29.67
22580;BME280;11456;47.030;15.396;2023-02-04T12:56:27;98497.50;;;11.38;30.91
22580;BME280;11456;47.030;15.396;2023-02-04T12:58:54;98502.13;;;11.26;30.21
22580;BME280;11456;47.030;15.396;2023-02-04T13:01:20;98495.31;;;11.22;30.70
22580;BME280;11456;47.030;15.396;2023-02-04T13:03:47;98498.91;;;11.33;31.00
22580;BME280;11456;47.030;15.396;2023-02-04T13:06:13;98491.13;;;11.49;30.58
22580;BME280;11456;47.030;15.396;2023-02-04T13:08:40;98505.91;;;11.45;30.78
22580;BME280;11456;47.030;15.396;2023-02-04T13:11:06;98512.69;;;11.39;31.18
22580;BME280;11456;47.030;15.396;2023-02-04T13:13:33;98507.88;;;10.09;32.29
22580;BME280;11456;47.030;15.396;2023-02-04T13:15:59;98519.84;;;10.16;32.67